createdAt,value
2023-02-15T00:01:09.038Z,100783.44
2023-02-15T00:03:38.882Z,100788.02
2023-02-15T00:06:08.159Z,100784.05
2023-02-15T00:08:37.627Z,100785.70
2023-02-15T00:11:06.774Z,100785.42
2023-02-15T00:13:36.560Z,100782.91
2023-02-15T00:16:08.470Z,100776.24
2023-02-15T00:18:38.338Z,100778.73
2023-02-15T00:21:08.278Z,100785.00
2023-02-15T00:23:37.297Z,100782.94
2023-02-15T00:26:10.177Z,100784.60
2023-02-15T00:28:38.978Z,100786.06
2023-02-15T00:31:08.419Z,100786.73
2023-02-15T00:33:37.973Z,100790.05
2023-02-15T00:36:08.375Z,100787.45
2023-02-15T00:38:37.413Z,100794.02
2023-02-15T00:41:07.222Z,100790.38
2023-02-15T00:43:36.800Z,100790.59
2023-02-15T00:46:08.509Z,100789.82
2023-02-15T00:48:36.964Z,100801.73
2023-02-15T00:51:05.606Z,100803.16
2023-02-15T00:53:34.200Z,100807.27
2023-02-15T01:03:42.983Z,100801.84
2023-02-15T01:06:11.772Z,100803.91
2023-02-15T01:08:40.642Z,100806.19
2023-02-15T01:11:11.767Z,100809.75
2023-02-15T01:13:41.122Z,100808.65
2023-02-15T01:16:09.498Z,100802.30
2023-02-15T01:18:38.005Z,100799.28
2023-02-15T01:21:11.360Z,100800.21
2023-02-15T01:23:39.576Z,100796.06
2023-02-15T01:26:08.228Z,100799.07
2023-02-15T01:28:36.728Z,100799.16
2023-02-15T01:31:08.201Z,100801.23
2023-02-15T01:33:37.059Z,100802.02
2023-02-15T01:36:05.850Z,100804.26
2023-02-15T01:38:34.339Z,100798.48
2023-02-15T01:41:21.349Z,100798.60
2023-02-15T01:43:57.574Z,100792.59
2023-02-15T01:46:52.683Z,100803.42
2023-02-15T01:49:22.129Z,100811.52
2023-02-15T01:51:50.606Z,100814.34
2023-02-15T01:54:25.984Z,100821.96
2023-02-15T01:56:56.192Z,100817.35
2023-02-15T01:59:24.551Z,100819.22
2023-02-15T02:01:53.827Z,100821.80
2023-02-15T02:04:35.006Z,100823.98
2023-02-15T02:07:03.821Z,100824.86
2023-02-15T02:09:33.606Z,100820.39
2023-02-15T02:12:01.846Z,100821.49
2023-02-15T02:14:30.114Z,100822.61
2023-02-15T02:17:20.281Z,100821.64
2023-02-15T02:19:57.928Z,100826.67
2023-02-15T02:22:56.372Z,100823.85
2023-02-15T02:25:39.905Z,100825.48
2023-02-15T02:28:46.257Z,100828.61
2023-02-15T02:31:39.341Z,100830.19
2023-02-15T02:34:45.099Z,100832.31
2023-02-15T02:37:21.606Z,100828.40
2023-02-15T02:39:56.189Z,100835.81
2023-02-15T02:42:32.477Z,100832.40
2023-02-15T02:45:14.553Z,100836.32
2023-02-15T02:47:50.256Z,100839.67
2023-02-15T02:50:23.188Z,100838.10
2023-02-15T02:52:53.455Z,100842.45
2023-02-15T02:55:40.230Z,100843.40
2023-02-15T02:58:12.779Z,100845.15
2023-02-15T03:01:02.789Z,100842.98
2023-02-15T03:03:40.011Z,100840.91
2023-02-15T03:06:13.108Z,100837.99
2023-02-15T03:08:43.816Z,100839.42
2023-02-15T03:11:11.981Z,100839.27
2023-02-15T03:13:40.421Z,100844.48
2023-02-15T03:16:27.228Z,100843.02
2023-02-15T03:19:23.472Z,100840.41
2023-02-15T03:22:04.927Z,100845.35
2023-02-15T03:24:36.380Z,100850.05
2023-02-15T03:27:06.888Z,100848.35
2023-02-15T03:29:35.211Z,100850.00
2023-02-15T03:32:04.559Z,100853.77
2023-02-15T03:34:33.117Z,100853.32
2023-02-15T03:37:02.697Z,100855.20
2023-02-15T03:39:37.017Z,100856.73
2023-02-15T03:42:08.540Z,100857.36
2023-02-15T03:45:00.591Z,100856.80
2023-02-15T03:47:31.468Z,100855.80
2023-02-15T03:50:29.988Z,100858.41
2023-02-15T03:52:58.715Z,100854.93
2023-02-15T03:55:27.415Z,100862.55
2023-02-15T03:58:15.404Z,100864.69
2023-02-15T04:01:08.797Z,100867.53
2023-02-15T04:03:42.002Z,100874.38
2023-02-15T04:06:10.298Z,100873.20
2023-02-15T04:08:58.273Z,100870.97
2023-02-15T04:11:27.667Z,100872.70
2023-02-15T04:13:57.732Z,100873.48
2023-02-15T04:16:26.323Z,100873.26
2023-02-15T04:19:13.306Z,100875.93
2023-02-15T04:22:00.438Z,100879.95
2023-02-15T04:24:47.388Z,100880.39
2023-02-15T04:27:16.280Z,100883.48
2023-02-15T04:29:46.356Z,100883.34
2023-02-15T04:32:14.689Z,100877.94
2023-02-15T04:34:42.891Z,100881.66
2023-02-15T04:37:11.453Z,100880.64
2023-02-15T04:39:39.837Z,100881.25
2023-02-15T04:42:08.077Z,100881.94
2023-02-15T04:44:38.796Z,100882.78
2023-02-15T04:47:07.105Z,100890.80
2023-02-15T04:49:35.870Z,100892.64
2023-02-15T04:52:05.257Z,100889.58
2023-02-15T04:54:33.888Z,100885.80
2023-02-15T04:57:02.424Z,100890.96
2023-02-15T04:59:30.791Z,100891.66
2023-02-15T05:01:59.491Z,100894.59
2023-02-15T05:04:27.568Z,100899.48
2023-02-15T05:06:55.777Z,100897.92
2023-02-15T05:09:25.864Z,100900.94
2023-02-15T05:11:54.528Z,100902.41
2023-02-15T05:14:22.849Z,100905.39
2023-02-15T05:16:52.575Z,100908.76
2023-02-15T05:19:20.981Z,100918.65
2023-02-15T05:21:49.196Z,100921.80
2023-02-15T05:24:36.590Z,100918.10
2023-02-15T05:27:23.612Z,100927.25
2023-02-15T05:29:52.233Z,100925.98
2023-02-15T05:32:25.921Z,100933.69
2023-02-15T05:34:54.319Z,100935.01
2023-02-15T05:37:22.493Z,100936.23
2023-02-15T05:39:50.557Z,100936.18
2023-02-15T05:42:18.738Z,100943.55
2023-02-15T05:44:46.826Z,100946.02
2023-02-15T05:47:14.985Z,100943.56
2023-02-15T05:49:43.355Z,100946.94
2023-02-15T05:52:13.395Z,100945.80
2023-02-15T05:54:41.673Z,100948.08
2023-02-15T05:57:09.920Z,100951.40
2023-02-15T05:59:40.210Z,100948.83
2023-02-15T06:02:11.118Z,100948.58
2023-02-15T06:04:39.791Z,100946.67
2023-02-15T06:07:07.861Z,100947.52
2023-02-15T06:09:38.165Z,100944.52
2023-02-15T06:12:06.727Z,100940.55
2023-02-15T06:14:34.950Z,100944.83
2023-02-15T06:17:03.333Z,100949.67
2023-02-15T06:19:31.515Z,100950.28
2023-02-15T06:22:00.143Z,100953.02
2023-02-15T06:24:28.406Z,100961.52
2023-02-15T06:26:56.861Z,100956.84
2023-02-15T06:29:25.086Z,100961.98
2023-02-15T06:31:53.612Z,100958.89
2023-02-15T06:34:22.009Z,100961.81
2023-02-15T06:36:50.317Z,100963.51
2023-02-15T06:39:18.552Z,100963.08
2023-02-15T06:41:46.933Z,100964.31
2023-02-15T06:44:15.143Z,100955.84
2023-02-15T06:46:43.376Z,100951.34
2023-02-15T06:49:11.944Z,100951.79
2023-02-15T06:51:40.410Z,100952.77
2023-02-15T06:54:08.917Z,100948.77
2023-02-15T06:56:37.433Z,100949.63
2023-02-15T06:59:05.896Z,100944.28
2023-02-15T07:01:35.057Z,100940.79
2023-02-15T07:04:03.885Z,100938.64
2023-02-15T07:06:34.293Z,100937.37
2023-02-15T07:09:03.370Z,100941.60
2023-02-15T07:11:54.316Z,100938.77
2023-02-15T07:14:23.021Z,100938.88
2023-02-15T07:16:51.585Z,100933.48
2023-02-15T07:19:19.669Z,100930.23
2023-02-15T07:21:48.250Z,100928.77
2023-02-15T07:24:16.418Z,100928.73
2023-02-15T07:26:47.814Z,100927.31
2023-02-15T07:29:17.097Z,100929.82
2023-02-15T07:31:46.462Z,100924.80
2023-02-15T07:34:14.709Z,100927.81
2023-02-15T07:36:45.115Z,100929.33
2023-02-15T07:39:14.008Z,100929.91
2023-02-15T07:41:42.154Z,100936.16
2023-02-15T07:44:14.780Z,100928.84
2023-02-15T07:46:43.203Z,100944.45
2023-02-15T07:49:11.670Z,100946.42
2023-02-15T07:51:42.130Z,100946.88
2023-02-15T07:54:10.399Z,100940.30
2023-02-15T07:56:38.675Z,100951.70
2023-02-15T07:59:07.012Z,100947.61
2023-02-15T08:01:37.328Z,100944.83
2023-02-15T08:04:06.914Z,100953.89
2023-02-15T08:06:36.315Z,100957.45
2023-02-15T08:09:08.084Z,100960.66
2023-02-15T08:11:37.802Z,100964.73
2023-02-15T08:14:17.017Z,100958.57
2023-02-15T08:16:53.409Z,100965.59
2023-02-15T08:19:24.958Z,100954.99
2023-02-15T08:22:05.176Z,100967.02
2023-02-15T08:24:35.709Z,100973.91
2023-02-15T08:27:10.112Z,100975.29
2023-02-15T08:29:38.903Z,100971.59
2023-02-15T08:32:10.436Z,100969.83
2023-02-15T08:34:41.454Z,100976.01
2023-02-15T08:37:10.489Z,100974.17
2023-02-15T08:39:40.517Z,100969.05
2023-02-15T08:42:09.470Z,100974.41
2023-02-15T08:44:37.800Z,100971.50
2023-02-15T08:47:06.115Z,100971.41
2023-02-15T08:49:34.527Z,100975.55
2023-02-15T08:52:02.933Z,100972.80
2023-02-15T08:54:31.444Z,100973.96
2023-02-15T08:57:01.290Z,100967.08
2023-02-15T08:59:30.002Z,100963.63
2023-02-15T09:01:58.209Z,100971.30
2023-02-15T09:04:26.412Z,100966.30
2023-02-15T09:06:56.257Z,100963.47
2023-02-15T09:09:32.382Z,100968.52
2023-02-15T09:12:00.479Z,100968.56
2023-02-15T09:14:28.624Z,100969.42
2023-02-15T09:16:57.028Z,100968.52
2023-02-15T09:19:25.682Z,100972.84
2023-02-15T09:21:54.766Z,100968.59
2023-02-15T09:24:23.165Z,100976.64
2023-02-15T09:26:54.528Z,100975.39
2023-02-15T09:29:23.868Z,100977.10
2023-02-15T09:31:52.368Z,100981.94
2023-02-15T09:34:22.624Z,100976.40
2023-02-15T09:36:50.937Z,100974.29
2023-02-15T09:39:24.988Z,100975.83
2023-02-15T09:41:53.617Z,100971.67
2023-02-15T09:44:41.256Z,100973.77
2023-02-15T09:47:42.264Z,100972.64
2023-02-15T09:50:13.727Z,100973.55
2023-02-15T09:53:08.904Z,100966.31
2023-02-15T09:55:41.761Z,100970.30
2023-02-15T09:58:25.464Z,100965.16
2023-02-15T11:36:05.448Z,100926.23
2023-02-15T11:38:33.314Z,100926.09
2023-02-15T11:41:05.272Z,100921.06
2023-02-15T11:43:40.208Z,100918.77
2023-02-15T11:46:09.476Z,100915.79
2023-02-15T11:48:37.448Z,100921.77
2023-02-15T11:51:04.874Z,100913.23
2023-02-15T11:53:33.549Z,100916.11
2023-02-15T11:56:00.293Z,100912.90
2023-02-15T11:58:38.323Z,100916.59
2023-02-15T12:01:30.133Z,100912.18
2023-02-15T12:03:59.903Z,100909.83
2023-02-15T12:06:34.079Z,100907.94
2023-02-15T12:09:16.718Z,100909.21
2023-02-15T12:11:43.664Z,100903.52
2023-02-15T12:14:21.099Z,100907.05
2023-02-15T12:16:54.559Z,100904.28
2023-02-15T12:19:38.393Z,100901.98
2023-02-15T12:22:05.828Z,100902.36
2023-02-15T12:24:45.935Z,100902.86
2023-02-15T12:27:16.566Z,100897.88
2023-02-15T12:29:46.769Z,100895.94
2023-02-15T12:32:31.025Z,100897.94
2023-02-15T12:35:15.175Z,100901.13
2023-02-15T12:37:55.620Z,100901.53
2023-02-15T12:40:30.925Z,100901.25
2023-02-15T12:42:58.734Z,100900.59
2023-02-15T12:45:31.151Z,100903.95
2023-02-15T12:48:16.906Z,100897.75
2023-02-15T12:50:46.071Z,100894.59
2023-02-15T12:53:19.650Z,100900.38
2023-02-15T12:56:03.188Z,100897.16
2023-02-15T12:58:31.321Z,100895.47
2023-02-15T13:01:12.370Z,100890.45
2023-02-15T13:03:53.521Z,100898.04
2023-02-15T13:06:20.398Z,100895.12
2023-02-15T13:08:50.807Z,100900.50
2023-02-15T13:11:37.972Z,100899.45
2023-02-15T13:14:29.492Z,100898.55
2023-02-15T13:16:58.865Z,100899.98
2023-02-15T13:19:44.140Z,100899.81
2023-02-15T13:22:14.590Z,100900.44
2023-02-15T13:25:02.360Z,100900.91
2023-02-15T13:27:38.398Z,100901.94
2023-02-15T13:30:46.810Z,100904.95
2023-02-15T13:33:26.817Z,100903.39
2023-02-15T13:36:10.205Z,100908.28
2023-02-15T13:38:53.333Z,100909.12
2023-02-15T13:41:32.593Z,100905.53
2023-02-15T13:44:15.910Z,100909.33
2023-02-15T13:47:01.552Z,100901.34
2023-02-15T13:50:04.745Z,100907.14
2023-02-15T13:52:34.115Z,100914.52
2023-02-15T13:55:19.821Z,100913.27
2023-02-15T13:58:16.733Z,100915.78
2023-02-15T14:01:22.739Z,100911.96
2023-02-15T14:04:08.328Z,100911.97
2023-02-15T14:07:13.920Z,100910.39
2023-02-15T14:10:17.018Z,100915.73
2023-02-15T14:12:44.309Z,100911.92
2023-02-15T14:15:32.793Z,100915.67
2023-02-15T14:18:00.803Z,100915.14
2023-02-15T14:20:36.576Z,100914.45
2023-02-15T14:23:20.122Z,100916.96
2023-02-15T14:25:50.647Z,100911.55
2023-02-15T14:28:23.438Z,100912.98
2023-02-15T14:30:50.680Z,100915.91
2023-02-15T14:33:37.057Z,100920.98
2023-02-15T14:36:07.313Z,100925.70
2023-02-15T14:38:47.935Z,100927.10
2023-02-15T14:41:17.651Z,100923.73
2023-02-15T14:44:12.299Z,100923.34
2023-02-15T14:46:51.692Z,100924.15
2023-02-15T14:49:22.122Z,100920.45
2023-02-15T14:51:49.931Z,100925.58
2023-02-15T14:54:21.472Z,100923.83
2023-02-15T14:57:08.869Z,100926.86
2023-02-15T14:59:46.567Z,100930.64
2023-02-15T15:02:28.363Z,100937.58
2023-02-15T15:05:11.088Z,100941.35
2023-02-15T15:07:47.173Z,100938.09
2023-02-15T15:10:18.078Z,100934.80
2023-02-15T15:12:48.816Z,100938.17
2023-02-15T15:15:32.628Z,100939.81
2023-02-15T15:18:05.338Z,100942.14
2023-02-15T15:20:49.063Z,100946.70
2023-02-15T15:23:20.214Z,100949.14
2023-02-15T15:25:56.382Z,100951.61
2023-02-15T15:28:33.506Z,100947.39
2023-02-15T15:31:31.724Z,100950.92
2023-02-15T15:34:36.802Z,100954.96
2023-02-15T15:37:56.935Z,100949.51
2023-02-15T15:40:49.011Z,100953.06
2023-02-15T15:43:22.774Z,100954.46
2023-02-15T15:45:55.900Z,100962.39
2023-02-15T15:48:39.249Z,100962.02
2023-02-15T15:51:20.673Z,100965.56
2023-02-15T15:53:50.802Z,100962.73
2023-02-15T15:56:28.381Z,100962.90
2023-02-15T15:59:00.941Z,100960.26
2023-02-15T16:01:29.471Z,100962.92
2023-02-15T16:03:58.194Z,100965.05
2023-02-15T16:06:36.741Z,100964.88
2023-02-15T16:09:15.697Z,100966.11
2023-02-15T16:11:42.771Z,100962.59
2023-02-15T16:14:14.673Z,100962.24
2023-02-15T16:16:48.549Z,100965.77
2023-02-15T16:19:18.975Z,100970.14
2023-02-15T16:21:47.238Z,100977.35
2023-02-15T16:24:38.898Z,100977.80
2023-02-15T16:27:33.392Z,100977.34
2023-02-15T16:30:25.335Z,100979.00
2023-02-15T16:33:12.236Z,100979.64
2023-02-15T16:35:42.285Z,100983.63
2023-02-15T16:38:10.535Z,100983.41
2023-02-15T16:40:43.800Z,100988.86
2023-02-15T16:43:22.042Z,100990.83
2023-02-15T16:45:48.894Z,100990.34
2023-02-15T16:48:21.985Z,100989.66
2023-02-15T16:50:54.072Z,100990.59
2023-02-15T16:53:23.619Z,100987.91
2023-02-15T16:55:52.876Z,100985.73
2023-02-15T16:58:23.997Z,100983.04
2023-02-15T17:00:50.799Z,100986.66
2023-02-15T17:03:18.623Z,100995.22
2023-02-15T17:05:47.186Z,100995.80
2023-02-15T17:08:47.531Z,100995.56
2023-02-15T17:11:19.428Z,100996.97
2023-02-15T17:14:06.963Z,101001.16
2023-02-15T17:16:34.485Z,100996.20
2023-02-15T17:19:43.912Z,100994.80
2023-02-15T17:22:20.327Z,100991.11
2023-02-15T17:24:49.509Z,100994.63
2023-02-15T17:27:24.194Z,100993.40
2023-02-15T17:29:57.756Z,100985.11
2023-02-15T17:32:26.880Z,100983.36
2023-02-15T17:34:59.873Z,100982.48
2023-02-15T17:37:31.961Z,100983.90
2023-02-15T17:39:59.306Z,100986.55
2023-02-15T17:42:26.141Z,100983.55
2023-02-15T17:44:53.497Z,100986.91
2023-02-15T17:47:21.412Z,100985.54
2023-02-15T17:49:49.667Z,100987.30
2023-02-15T17:52:17.226Z,100986.29
2023-02-15T17:55:03.053Z,100984.76
2023-02-15T17:57:30.460Z,100989.05
2023-02-15T18:00:15.794Z,100987.50
2023-02-15T18:03:02.087Z,100985.77
2023-02-15T18:05:47.967Z,100988.61
2023-02-15T18:08:33.968Z,100994.59
2023-02-15T18:11:19.274Z,100996.15
2023-02-15T18:13:46.829Z,100994.92
2023-02-15T18:16:15.409Z,101002.22
2023-02-15T18:18:43.567Z,100995.05
2023-02-15T18:21:12.183Z,100994.77
2023-02-15T18:23:40.039Z,100993.55
2023-02-15T18:26:18.103Z,100993.16
2023-02-15T18:28:44.879Z,100992.64
2023-02-15T18:31:12.211Z,100993.59
2023-02-15T18:33:42.235Z,100997.00
2023-02-15T18:36:13.484Z,100999.57
2023-02-15T18:38:42.304Z,101000.01
2023-02-15T18:41:18.012Z,100997.59
2023-02-15T18:43:48.345Z,100997.84
2023-02-15T18:46:16.373Z,100998.41
2023-02-15T18:48:43.533Z,100995.83
2023-02-15T18:51:16.466Z,100995.49
2023-02-15T18:53:43.485Z,101002.20
2023-02-15T18:56:14.715Z,101002.17
2023-02-15T18:58:42.495Z,101002.82
2023-02-15T19:01:20.568Z,101000.83
2023-02-15T19:03:49.836Z,101002.39
2023-02-15T19:06:18.458Z,101001.46
2023-02-15T19:08:48.404Z,101002.64
2023-02-15T19:11:22.628Z,101000.48
2023-02-15T19:13:50.580Z,100995.58
2023-02-15T19:16:26.755Z,100998.21
2023-02-15T19:18:53.733Z,100994.48
2023-02-15T19:21:20.569Z,100997.06
2023-02-15T19:23:52.540Z,100993.16
2023-02-15T19:26:19.782Z,100998.27
2023-02-15T19:28:47.283Z,100996.85
2023-02-15T19:31:17.440Z,100992.60
2023-02-15T19:33:44.902Z,100992.95
2023-02-15T19:36:16.897Z,100991.55
2023-02-15T19:38:45.711Z,100989.05
2023-02-15T19:41:27.385Z,100986.39
2023-02-15T19:43:56.100Z,100984.94
2023-02-15T19:46:23.158Z,100980.86
2023-02-15T19:48:51.041Z,100983.98
2023-02-15T19:51:17.887Z,100982.19
2023-02-15T19:53:45.375Z,100977.02
2023-02-15T19:56:14.183Z,100982.64
2023-02-15T19:58:42.072Z,100984.89
2023-02-15T20:01:09.164Z,100983.65
2023-02-15T20:03:36.644Z,100986.64
2023-02-15T20:06:03.715Z,100988.18
2023-02-15T20:08:34.163Z,100984.46
2023-02-15T20:11:01.454Z,100990.48
2023-02-15T20:13:29.589Z,100990.81
2023-02-15T20:15:57.335Z,100990.63
2023-02-15T20:18:24.009Z,100993.98
2023-02-15T20:20:53.902Z,100991.05
2023-02-15T20:23:26.998Z,100991.27
2023-02-15T20:25:57.228Z,100992.52
2023-02-15T20:28:25.690Z,100985.60
2023-02-15T20:30:52.566Z,100988.73
2023-02-15T20:33:20.539Z,100988.20
2023-02-15T20:35:47.773Z,100983.80
2023-02-15T20:38:24.106Z,100985.39
2023-02-15T20:41:09.599Z,100986.05
2023-02-15T20:43:36.631Z,100985.01
2023-02-15T20:46:04.486Z,100981.51
2023-02-15T20:48:33.066Z,100980.45
2023-02-15T20:50:59.714Z,100981.51
2023-02-15T20:53:30.185Z,100978.34
2023-02-15T20:55:57.764Z,100978.93
2023-02-15T20:58:28.513Z,100978.04
2023-02-15T21:00:57.201Z,100975.00
2023-02-15T21:03:30.179Z,100978.71
2023-02-15T21:05:58.355Z,100976.60
2023-02-15T21:08:25.821Z,100979.27
2023-02-15T21:10:53.104Z,100974.70
2023-02-15T21:13:30.427Z,100973.62
2023-02-15T21:15:58.954Z,100972.86
2023-02-15T21:18:32.825Z,100974.46
2023-02-15T21:21:01.387Z,100977.33
2023-02-15T21:23:38.672Z,100977.67
2023-02-15T21:26:06.208Z,100973.09
2023-02-15T21:28:33.002Z,100976.95
2023-02-15T21:31:00.856Z,100978.69
2023-02-15T21:33:28.918Z,100976.73
2023-02-15T21:35:56.314Z,100974.75
2023-02-15T21:38:24.593Z,100976.16
2023-02-15T21:40:51.300Z,100982.88
2023-02-15T21:43:42.682Z,100982.34
2023-02-15T21:46:34.608Z,100987.82
2023-02-15T21:49:01.924Z,100980.94
2023-02-15T21:51:47.718Z,100985.28
2023-02-15T21:54:16.721Z,100984.25
2023-02-15T21:56:43.805Z,100984.07
2023-02-15T21:59:11.580Z,100988.11
2023-02-15T22:01:40.716Z,100986.35
2023-02-15T22:04:18.677Z,100985.31
2023-02-15T22:06:46.155Z,100978.33
2023-02-15T22:09:17.181Z,100977.96
2023-02-15T22:11:45.373Z,100977.95
2023-02-15T22:14:40.260Z,100972.83
2023-02-15T22:17:15.124Z,100977.38
2023-02-15T22:19:42.891Z,100981.60
2023-02-15T22:22:09.900Z,100983.16
2023-02-15T22:24:37.796Z,100980.51
2023-02-15T22:27:04.848Z,100978.55
2023-02-15T22:29:32.173Z,100977.88
2023-02-15T22:31:58.928Z,100975.63
2023-02-15T22:34:29.427Z,100974.72
2023-02-15T22:36:58.325Z,100976.67
2023-02-15T22:39:25.106Z,100976.02
2023-02-15T22:41:52.480Z,100978.48
2023-02-15T22:44:22.381Z,100974.92
2023-02-15T22:46:49.223Z,100981.89
2023-02-15T22:49:16.249Z,100976.17
2023-02-15T22:51:43.416Z,100976.80
2023-02-15T22:54:10.098Z,100975.16
2023-02-15T22:56:45.887Z,100973.17
2023-02-15T22:59:28.609Z,100976.52
2023-02-15T23:02:00.392Z,100975.98
2023-02-15T23:04:28.083Z,100975.14
2023-02-15T23:06:57.562Z,100974.24
2023-02-15T23:09:24.727Z,100977.61
2023-02-15T23:11:51.628Z,100979.20
2023-02-15T23:14:22.260Z,100979.55
2023-02-15T23:16:49.686Z,100978.15
2023-02-15T23:19:16.937Z,100977.45
2023-02-15T23:21:43.856Z,100974.33
2023-02-15T23:24:28.335Z,100979.13
2023-02-15T23:27:15.215Z,100974.11
2023-02-15T23:29:42.000Z,100971.90
2023-02-15T23:32:10.635Z,100975.80
2023-02-15T23:34:37.602Z,100976.00
2023-02-15T23:37:04.755Z,100976.55
2023-02-15T23:39:50.311Z,100978.53
2023-02-15T23:42:23.145Z,100975.57
2023-02-15T23:44:52.464Z,100976.67
2023-02-15T23:47:47.852Z,100978.46
2023-02-15T23:50:28.724Z,100981.13
2023-02-15T23:53:43.909Z,100988.36
2023-02-15T23:56:13.286Z,100977.16
2023-02-15T23:58:43.282Z,100978.38
